Aviation Digital Data Service (ADDS)

Output produced by METARs form (0019 UTC 20 April 2019)
found at http://www.aviationweather.gov/metar/data/
 
Forecast for: DXNG (NAIMTOUGOU(CIV/M, TG)
Text: TAF DXNG 192300Z 2000/2024 VRB05KT 9999 FEW010
Forecast period: 0000 UTC 20 April 2019 to 0000 UTC 21 April 2019
Forecast type: FROM: standard forecast or significant change
Winds: variable direction winds at 6 MPH (5 knots; 2.6 m/s)
Visibility: 6 or more miles 10+ km)
Ceiling: at least 12,000 feet AGL
Clouds: few clouds at 1000 feet AGL
Weather: no significant weather forecast for this period